Time;durP1;ratioP1;P1;durP2;ratioP2;P2;SDS_P1;SDS_P2;PMS_P1;PMS_P2;Temp;Humidity;BMP_temperature;BMP_pressure;BME280_temperature;BME280_humidity;BME280_pressure;Samples;Min_cycle;Max_cycle;Signal;HPM_P1;HPM_P2
2022/05/13 00:30:29;310454.00;1.03;535.89;0.00;0.00;0.62;;;;;20.90;4.50;;;;;;2273799;61;1412;-89
2022/05/13 00:32:56;17075.00;0.06;30.20;0.00;0.00;0.62;;;;;21.00;3.90;;;;;;2272397;61;1214;-88
2022/05/13 00:43:00;190299.00;0.63;329.22;0.00;0.00;0.62;;;;;20.80;5.00;;;;;;2273976;61;1291;-87
2022/05/13 00:47:57;730611.00;2.44;1260.36;0.00;0.00;0.62;;;;;21.20;2.40;;;;;;2410860;40;3566;-88
2022/05/13 01:10:45;592708.00;1.98;1021.63;0.00;0.00;0.62;;;;;21.50;1.10;;;;;;2274366;61;1406;-87
2022/05/13 01:15:43;604242.00;2.01;1041.55;0.00;0.00;0.62;;;;;21.40;2.20;;;;;;2274085;61;1968;-86
2022/05/13 01:18:10;281590.00;0.94;486.27;0.00;0.00;0.62;;;;;21.50;1.80;;;;;;2272638;61;1437;-86
2022/05/13 01:23:11;517169.00;1.72;891.39;0.00;0.00;0.62;;;;;21.50;1.60;;;;;;2274035;61;1413;-89
2022/05/13 01:25:43;327350.00;1.09;564.93;36341.00;0.12;63.56;;;;;21.50;1.50;;;;;;2272537;61;1686;-89
2022/05/13 01:33:09;1550907.00;5.17;2739.28;50692.00;0.17;88.38;;;;;21.50;1.50;;;;;;2278144;61;1431;-86
2022/05/13 01:50:39;1666296.00;5.55;2960.12;216331.00;0.72;374.03;;;;;21.30;2.90;;;;;;2277860;61;1357;-88
2022/05/13 01:58:07;1935460.00;6.45;3492.63;234542.00;0.78;405.36;;;;;21.20;2.80;;;;;;2277898;61;1904;-88
2022/05/13 02:00:34;1063774.00;3.55;1845.76;112001.00;0.37;194.28;;;;;21.20;3.10;;;;;;2276214;61;1733;-87
2022/05/13 02:08:02;878312.00;2.93;1518.06;59074.00;0.20;102.88;;;;;21.10;4.40;;;;;;2270255;61;1340;-88
2022/05/13 02:10:30;121679.00;0.41;210.98;0.00;0.00;0.62;;;;;21.40;3.30;;;;;;2268214;61;1576;-87
2022/05/13 02:12:57;87504.00;0.29;152.00;0.00;0.00;0.62;;;;;21.40;3.80;;;;;;2268221;61;1446;-90
2022/05/13 02:25:29;216459.00;0.72;374.25;0.00;0.00;0.62;;;;;21.70;2.10;;;;;;2323728;40;3597;-86
2022/05/13 02:35:27;609472.00;2.03;1050.58;0.00;0.00;0.62;;;;;20.90;3.80;;;;;;2274153;61;1403;-87
2022/05/13 02:45:24;336856.00;1.12;581.27;0.00;0.00;0.62;;;;;20.90;3.80;;;;;;2270120;61;1385;-88
2022/05/13 03:13:00;2087683.00;6.96;3805.95;91126.00;0.30;158.25;;;;;21.70;2.00;;;;;;2347603;40;3646;-87
2022/05/13 03:20:27;608025.00;2.03;1048.08;75053.00;0.25;130.49;;;;;21.30;3.10;;;;;;2278376;61;1137;-90
2022/05/13 03:43:00;777211.00;2.59;1341.41;0.00;0.00;0.62;;;;;21.40;3.80;;;;;;2274369;61;1311;-88
2022/05/13 03:50:29;304735.00;1.02;526.06;0.00;0.00;0.62;;;;;21.50;3.70;;;;;;2274627;61;1342;-87
2022/05/13 04:00:25;683196.00;2.28;1178.11;51181.00;0.17;89.23;;;;;21.50;4.50;;;;;;2327610;56;3623;-87
2022/05/13 04:10:18;800962.00;2.67;1382.80;0.00;0.00;0.62;;;;;21.40;4.10;;;;;;2270574;61;1242;-89
2022/05/13 04:17:46;399900.00;1.33;689.63;0.00;0.00;0.62;;;;;21.20;3.00;;;;;;2274146;61;1898;-86
2022/05/13 04:20:14;199816.00;0.67;345.61;0.00;0.00;0.62;;;;;21.30;3.80;;;;;;2326310;55;3747;-87
2022/05/13 04:22:42;75816.00;0.25;131.81;0.00;0.00;0.62;;;;;21.50;3.60;;;;;;2272619;61;1489;-87
2022/05/13 04:25:09;25536.00;0.09;44.86;0.00;0.00;0.62;;;;;21.60;3.60;;;;;;2272585;61;1575;-89
2022/05/13 04:27:36;160128.00;0.53;277.26;0.00;0.00;0.62;;;;;21.60;3.30;;;;;;2272673;61;1662;-88
2022/05/13 04:30:06;218530.00;0.73;377.81;0.00;0.00;0.62;;;;;21.70;2.20;;;;;;2272615;61;1488;-86
2022/05/13 05:40:27;903954.00;3.01;1563.07;0.00;0.00;0.62;;;;;22.50;1.00;;;;;;2273795;61;1187;-87
2022/05/13 05:45:25;799567.00;2.67;1380.37;0.00;0.00;0.62;;;;;22.70;1.00;;;;;;2274989;61;1311;-89
2022/05/13 05:48:03;368693.00;1.23;635.99;0.00;0.00;0.62;;;;;22.40;1.00;;;;;;2303704;40;3614;-89
2022/05/13 07:24:20;544460.00;1.81;938.41;36631.00;0.12;64.06;;;;;21.20;2.70;;;;;;2461239;40;3550;31
2022/05/13 08:01:31;812065.00;2.71;1402.17;0.00;0.00;0.62;;;;;19.90;8.90;;;;;;2274635;61;1331;-87
2022/05/13 10:44:34;1507312.00;5.02;2656.89;169296.00;0.56;293.05;;;;;23.60;1.00;;;;;;2273660;61;1384;-87
2022/05/13 10:47:06;1465693.00;4.89;2578.73;224231.00;0.75;387.62;;;;;24.10;1.00;;;;;;2272305;61;1645;-87
2022/05/13 10:49:38;687199.00;2.29;1185.05;111868.00;0.37;194.05;;;;;24.50;1.00;;;;;;2272505;61;1048;-87
2022/05/13 10:52:17;678356.00;2.26;1169.73;110947.00;0.37;192.46;;;;;25.00;1.00;;;;;;2272396;61;1328;-87
2022/05/13 10:54:52;797248.00;2.66;1376.32;172043.00;0.57;297.79;;;;;25.20;1.00;;;;;;2272347;61;1005;-86
2022/05/13 10:57:34;1338095.00;4.46;2342.00;161050.00;0.54;278.85;;;;;25.10;1.00;;;;;;2272306;61;1908;-91
2022/05/13 11:00:12;682393.00;2.27;1176.72;146891.00;0.49;254.45;;;;;25.10;1.00;;;;;;2272365;61;1030;-87
2022/05/13 11:03:09;836246.00;2.79;1444.41;65919.00;0.22;114.71;;;;;25.00;1.00;;;;;;2272363;61;1375;-86
2022/05/13 11:05:48;1302317.00;4.34;2276.35;144403.00;0.48;250.16;;;;;25.10;1.00;;;;;;2272394;61;1118;-87
2022/05/13 11:08:20;444140.00;1.48;765.70;12266.00;0.04;21.87;;;;;25.00;1.00;;;;;;2272305;61;931;-87
2022/05/13 11:10:58;122919888.00;409.73;75240176.00;78194.00;0.26;135.92;;;;;25.00;1.00;;;;;;2272352;61;1459;-87
2022/05/13 11:13:48;574217.00;1.91;989.72;108772.00;0.36;188.71;;;;;25.10;1.00;;;;;;2272266;61;1406;-87
2022/05/13 11:16:29;703376.00;2.34;1213.09;136798.00;0.46;237.05;;;;;25.00;1.00;;;;;;2272119;61;1144;-87
2022/05/13 11:19:07;132150160.00;440.50;93514248.00;300957.00;1.00;519.57;;;;;25.30;1.00;;;;;;2272148;61;2050;-87
2022/05/13 11:21:46;713647.00;2.38;1230.91;131873.00;0.44;228.56;;;;;25.10;1.00;;;;;;2272269;61;1375;-87
2022/05/13 11:27:24;1016115.00;3.39;1761.03;134179.00;0.45;232.54;;;;;25.40;1.00;;;;;;2272444;61;608;-85
2022/05/13 11:29:57;414440.00;1.38;714.63;99096.00;0.33;172.01;;;;;25.10;1.00;;;;;;2272359;61;1515;-86
2022/05/13 11:32:37;513265.00;1.71;884.67;95325.00;0.32;165.50;;;;;24.90;1.00;;;;;;2272378;61;1276;-86
2022/05/13 11:35:17;640093.00;2.13;1103.50;162471.00;0.54;281.30;;;;;25.00;1.00;;;;;;2272410;61;1640;-85
2022/05/13 11:37:47;633205.00;2.11;1091.59;155005.00;0.52;268.43;;;;;24.70;1.00;;;;;;2272445;61;1976;-86
2022/05/13 11:40:20;467281.00;1.56;805.51;156953.00;0.52;271.79;;;;;24.40;1.00;;;;;;2272399;61;1419;-87
2022/05/13 11:43:19;601713.00;2.01;1037.18;168005.00;0.56;290.83;;;;;24.10;1.00;;;;;;2272379;61;1447;-87
2022/05/13 11:46:29;1121815.00;3.74;1949.48;224727.00;0.75;388.48;;;;;23.90;1.00;;;;;;2272350;61;1606;-86
2022/05/13 11:49:06;817128.00;2.72;1411.01;133906.00;0.45;232.06;;;;;24.70;1.00;;;;;;2272453;61;1722;-87
2022/05/13 11:51:36;969440.00;3.23;1678.42;114499.00;0.38;198.59;;;;;25.10;1.00;;;;;;2272471;61;2392;-87
2022/05/13 11:54:18;753158.00;2.51;1299.55;170153.00;0.57;294.53;;;;;25.70;1.00;;;;;;2272457;61;1119;-85
2022/05/13 11:56:47;599147.00;2.00;1032.75;69748.00;0.23;121.32;;;;;26.00;1.00;;;;;;2272515;61;1926;-85
2022/05/13 11:59:44;934473.00;3.11;1616.75;143606.00;0.48;248.79;;;;;26.00;1.00;;;;;;2272543;61;1943;-86
2022/05/13 12:02:14;772532.00;2.58;1333.26;140062.00;0.47;242.68;;;;;26.10;1.00;;;;;;2272497;61;1381;-86
2022/05/13 12:05:08;945088.00;3.15;1635.45;82852.00;0.28;143.96;;;;;25.60;1.00;;;;;;2272584;61;1136;-85
2022/05/13 12:07:48;599587.00;2.00;1033.51;83595.00;0.28;145.25;;;;;24.90;1.00;;;;;;2272505;61;2273;-85
2022/05/13 12:10:15;338772.00;1.13;584.56;26174.00;0.09;45.96;;;;;25.20;1.00;;;;;;2272471;61;1073;-85
2022/05/13 12:13:06;1232721.00;4.11;2149.49;146397.00;0.49;253.60;;;;;25.60;1.00;;;;;;2272375;61;1355;-87
2022/05/13 12:15:43;972007.00;3.24;1682.95;142367.00;0.47;246.65;;;;;25.90;1.00;;;;;;2272357;61;1092;-86
2022/05/13 12:18:24;643343.00;2.14;1109.12;99968.00;0.33;173.52;;;;;25.90;1.00;;;;;;2272448;61;1991;-85
2022/05/13 12:21:04;669333.00;2.23;1154.10;117263.00;0.39;203.36;;;;;26.20;1.00;;;;;;2272553;61;1173;-86
2022/05/13 12:23:36;509816.00;1.70;878.73;44096.00;0.15;76.97;;;;;26.50;1.00;;;;;;2272381;61;1135;-84
2022/05/13 12:26:06;506322.00;1.69;872.71;49278.00;0.16;85.94;;;;;26.40;1.00;;;;;;2272507;61;1159;-85
2022/05/13 12:28:41;934630.00;3.12;1617.02;41980.00;0.14;73.31;;;;;26.30;1.00;;;;;;2273169;61;1088;-87
2022/05/13 12:31:34;696657.00;2.32;1201.44;42789.00;0.14;74.71;;;;;26.40;1.00;;;;;;2273043;61;1465;-86
2022/05/13 12:39:56;127329.00;0.42;220.72;0.00;0.00;0.62;;;;;26.90;1.00;;;;;;2272991;61;686;-86
2022/05/13 12:42:39;592695.00;1.98;1021.61;93546.00;0.31;162.43;;;;;26.90;1.00;;;;;;2272678;61;1461;-86
2022/05/13 12:45:11;504151.00;1.68;868.97;37890.00;0.13;66.24;;;;;26.60;1.00;;;;;;2272792;61;1139;-85
2022/05/13 12:47:57;394735.00;1.32;680.75;41091.00;0.14;71.78;;;;;26.70;1.00;;;;;;2272789;61;1854;-84
2022/05/13 12:50:30;1077705.00;3.59;1870.60;53401.00;0.18;93.07;;;;;26.60;1.00;;;;;;2272796;61;1159;-86
2022/05/13 12:52:59;1211942.00;4.04;2111.83;210949.00;0.70;364.77;;;;;26.90;1.00;;;;;;2270108;61;1714;-86
2022/05/13 12:55:27;441487.00;1.47;761.14;27655.00;0.09;48.52;;;;;27.00;1.00;;;;;;2268695;61;1140;-84
2022/05/13 12:58:00;192874.00;0.64;333.66;76437.00;0.25;132.88;;;;;27.20;1.00;;;;;;2268565;61;2205;-86
2022/05/13 13:00:34;161072.00;0.54;278.89;0.00;0.00;0.62;;;;;27.30;1.00;;;;;;2268663;61;945;-85
2022/05/13 13:03:07;103627.00;0.35;179.83;0.00;0.00;0.62;;;;;27.30;1.00;;;;;;2268673;61;1417;-85
2022/05/13 13:05:36;77764.00;0.26;135.17;0.00;0.00;0.62;;;;;27.40;1.00;;;;;;2268630;61;1117;-86
2022/05/13 13:08:13;136035.00;0.45;235.74;0.00;0.00;0.62;;;;;27.30;1.00;;;;;;2268592;61;895;-86
2022/05/13 13:10:49;100010.00;0.33;173.59;0.00;0.00;0.62;;;;;27.10;1.00;;;;;;2268547;61;1115;-86
2022/05/13 13:15:53;1360926.00;4.54;2384.05;0.00;0.00;0.62;;;;;26.50;1.00;;;;;;2316879;40;3463;-86
2022/05/13 13:18:29;849887.00;2.83;1468.27;69852.00;0.23;121.50;;;;;26.40;1.00;;;;;;2272449;61;2006;-87
2022/05/13 13:21:00;1095971.00;3.65;1903.22;135642.00;0.45;235.06;;;;;25.90;1.00;;;;;;2272546;61;1183;-86
2022/05/13 13:23:34;1983754.00;6.61;3591.02;307938.00;1.03;531.57;;;;;26.00;1.00;;;;;;2272608;61;1314;-86
2022/05/13 13:26:03;1548416.00;5.16;2734.56;92305.00;0.31;160.29;;;;;26.10;1.00;;;;;;2272487;61;1650;-86
2022/05/13 13:28:33;245692.00;0.82;424.54;76536.00;0.26;133.05;;;;;26.50;1.00;;;;;;2272462;61;1597;-87
2022/05/13 13:31:04;467267.00;1.56;805.49;78564.00;0.26;136.56;;;;;26.50;1.00;;;;;;2272519;61;996;-87
2022/05/13 13:33:38;207158.00;0.69;358.24;49613.00;0.17;86.52;;;;;26.70;1.00;;;;;;2272425;61;1660;-89
2022/05/13 13:36:09;495242.00;1.65;853.63;93623.00;0.31;162.56;;;;;26.90;1.00;;;;;;2272239;61;1055;-88
2022/05/13 13:38:38;594587.00;1.98;1024.87;46557.00;0.16;81.23;;;;;26.60;1.00;;;;;;2272302;61;1915;-88
2022/05/13 13:41:08;1652699.00;5.51;2933.88;192610.00;0.64;333.20;;;;;26.20;1.00;;;;;;2272558;61;1135;-86
2022/05/13 13:43:35;403021.00;1.34;695.00;155853.00;0.52;269.89;;;;;25.80;1.00;;;;;;2272688;61;1034;-88
2022/05/13 13:46:09;385804.00;1.29;665.40;71005.00;0.24;123.50;;;;;25.60;1.00;;;;;;2272461;61;1102;-87
2022/05/13 13:48:42;17526.00;0.06;30.99;0.00;0.00;0.62;;;;;25.00;1.00;;;;;;2272682;61;1043;-87
2022/05/13 13:51:17;101235.00;0.34;175.70;0.00;0.00;0.62;;;;;24.90;1.00;;;;;;2272439;61;1420;-84
2022/05/13 13:53:53;145172.00;0.48;251.49;0.00;0.00;0.62;;;;;25.00;1.00;;;;;;2272527;61;1046;-86
2022/05/13 13:56:21;265426.00;0.88;458.48;9974.00;0.03;17.90;;;;;25.30;1.00;;;;;;2272580;61;1169;-87
2022/05/13 13:59:05;1133217.00;3.78;1969.93;83806.00;0.28;145.61;;;;;24.90;1.00;;;;;;2272669;61;1990;-86
2022/05/13 14:01:34;528374.00;1.76;910.69;88208.00;0.29;153.21;;;;;24.50;1.00;;;;;;2272195;61;1564;-84
2022/05/13 14:04:08;118980832.00;396.60;68229968.00;0.00;0.00;0.62;;;;;24.00;1.00;;;;;;2272497;61;1017;-88
2022/05/13 14:06:37;189136.00;0.63;327.22;0.00;0.00;0.62;;;;;23.80;1.00;;;;;;2272406;61;1465;-86
2022/05/13 14:09:06;237112.00;0.79;409.78;0.00;0.00;0.62;;;;;24.20;1.00;;;;;;2272442;61;1649;-85
2022/05/13 14:11:37;1215241.00;4.05;2117.80;165863.00;0.55;287.14;;;;;24.80;1.00;;;;;;2272543;61;1317;-87
2022/05/13 14:14:07;1124567.00;3.75;1954.41;140124.00;0.47;242.78;;;;;24.60;1.00;;;;;;2272613;61;979;-87
2022/05/13 14:16:45;252005.00;0.84;435.40;73919.00;0.25;128.53;;;;;24.70;1.00;;;;;;2272611;61;1210;-89
2022/05/13 14:19:17;130983.00;0.44;227.02;0.00;0.00;0.62;;;;;25.30;1.00;;;;;;2272526;61;1939;-87
2022/05/13 14:21:49;126551.00;0.42;219.38;0.00;0.00;0.62;;;;;25.40;1.00;;;;;;2272407;61;1541;-89
2022/05/13 14:24:31;125594.00;0.42;217.73;0.00;0.00;0.62;;;;;25.30;1.00;;;;;;2272512;61;1396;-85
2022/05/13 14:27:00;767304.00;2.56;1324.16;0.00;0.00;0.62;;;;;25.60;1.00;;;;;;2272609;61;1102;-88
2022/05/13 14:29:34;484548.00;1.62;835.22;75309.00;0.25;130.93;;;;;26.10;1.00;;;;;;2272466;61;1613;-86
2022/05/13 14:32:07;246084.00;0.82;425.22;0.00;0.00;0.62;;;;;26.50;1.00;;;;;;2272411;61;1376;-85
2022/05/13 14:34:35;260359.00;0.87;449.77;0.00;0.00;0.62;;;;;26.60;1.00;;;;;;2272430;61;813;-87
2022/05/13 14:37:05;805390.00;2.68;1390.53;73420.00;0.24;127.67;;;;;26.40;1.00;;;;;;2272496;61;1643;-88
2022/05/13 14:39:53;264325.00;0.88;456.59;86631.00;0.29;150.49;;;;;25.70;1.00;;;;;;2272402;61;1919;-87
2022/05/13 14:42:25;751630.00;2.51;1296.89;208476.00;0.69;360.51;;;;;25.70;1.00;;;;;;2272210;61;1586;-87
2022/05/13 14:44:55;215632.00;0.72;372.83;11608.00;0.04;20.73;;;;;26.10;1.00;;;;;;2272490;61;1525;-87
2022/05/13 14:47:35;390463.00;1.30;673.41;0.00;0.00;0.62;;;;;26.30;1.00;;;;;;2272446;61;1033;-84
2022/05/13 14:50:16;38561.00;0.13;67.40;0.00;0.00;0.62;;;;;26.20;1.00;;;;;;2272317;61;1064;-84
2022/05/13 14:52:47;437133.00;1.46;753.65;28527.00;0.10;50.03;;;;;25.80;1.00;;;;;;2271919;61;1585;-85
2022/05/13 14:55:25;814671.00;2.72;1406.72;71257.00;0.24;123.93;;;;;25.40;1.00;;;;;;2272406;61;1075;-86
2022/05/13 14:57:53;1468228.00;4.89;2583.48;92770.00;0.31;161.09;;;;;25.70;1.00;;;;;;2272363;61;2014;-86
2022/05/13 15:00:24;862555.00;2.88;1490.45;133139.00;0.44;230.74;;;;;26.10;1.00;;;;;;2272363;61;1187;-88
2022/05/13 15:03:03;532374.00;1.77;917.58;180032.00;0.60;311.54;;;;;26.30;1.00;;;;;;2272462;61;1333;-88
2022/05/13 15:05:39;294499.00;0.98;508.46;0.00;0.00;0.62;;;;;26.10;1.00;;;;;;2272385;61;1235;-87
2022/05/13 15:08:45;30832.00;0.10;54.02;0.00;0.00;0.62;;;;;26.30;1.00;;;;;;2272262;61;1165;-88
2022/05/13 15:11:16;248611.00;0.83;429.56;19422.00;0.06;34.27;;;;;26.70;1.00;;;;;;2272302;61;1722;-85
2022/05/13 15:13:44;104793.00;0.35;181.84;0.00;0.00;0.62;;;;;26.40;1.00;;;;;;2272363;61;1086;-87
2022/05/13 15:16:13;437015.00;1.46;753.45;0.00;0.00;0.62;;;;;26.30;1.00;;;;;;2282924;55;3752;-90
2022/05/13 15:18:41;1144661.00;3.82;1990.48;163835.00;0.55;283.65;;;;;26.30;1.00;;;;;;2276369;61;1977;-86
2022/05/13 15:21:09;118883408.00;396.28;68062352.00;70529.00;0.24;122.67;;;;;26.30;1.00;;;;;;2276316;61;1352;-85
2022/05/13 15:23:37;557391.00;1.86;960.70;127007.00;0.42;220.17;;;;;25.80;1.00;;;;;;2272234;61;1103;-86
2022/05/13 15:26:06;242409.00;0.81;418.89;36507.00;0.12;63.84;;;;;25.10;1.00;;;;;;2272210;61;1074;-86
2022/05/13 15:28:36;21803.00;0.07;38.39;0.00;0.00;0.62;;;;;24.40;1.00;;;;;;2272134;61;1648;-83
2022/05/13 15:31:03;89051.00;0.30;154.67;0.00;0.00;0.62;;;;;24.30;1.00;;;;;;2272233;61;1080;-84
2022/05/13 15:33:30;226384.00;0.75;391.33;0.00;0.00;0.62;;;;;24.60;1.00;;;;;;2272171;61;1516;-84
2022/05/13 15:35:57;162316.00;0.54;281.03;46911.00;0.16;81.84;;;;;25.30;1.00;;;;;;2272314;61;1519;-87
2022/05/13 15:38:24;1487282.00;4.96;2619.21;11611.00;0.04;20.74;;;;;25.30;1.00;;;;;;2272234;61;1994;-87
2022/05/13 15:40:51;334251.00;1.11;576.79;65723.00;0.22;114.37;;;;;25.30;1.00;;;;;;2272103;61;1024;-87
2022/05/13 15:43:19;226550.00;0.76;391.61;0.00;0.00;0.62;;;;;25.80;1.00;;;;;;2271961;61;1537;-85
2022/05/13 15:45:53;29041.00;0.10;50.92;0.00;0.00;0.62;;;;;25.90;1.00;;;;;;2272112;61;1051;-84
2022/05/13 15:48:21;34239.00;0.11;59.92;0.00;0.00;0.62;;;;;26.20;1.00;;;;;;2272226;61;1572;-86
2022/05/13 15:53:33;325674.00;1.09;562.05;0.00;0.00;0.62;;;;;25.60;1.00;;;;;;2272277;61;663;-86
2022/05/13 15:56:02;1854317.00;6.18;3329.35;128060.00;0.43;221.98;;;;;25.60;1.00;;;;;;2272094;61;2432;-87
2022/05/13 15:58:35;1120187.00;3.73;1946.56;217419.00;0.72;375.90;;;;;25.50;1.00;;;;;;2272201;61;2009;-86
2022/05/13 16:01:04;266845.00;0.89;460.92;77436.00;0.26;134.61;;;;;25.30;1.00;;;;;;2272220;61;1100;-88
2022/05/13 16:03:32;483519.00;1.61;833.45;56005.00;0.19;97.57;;;;;25.10;1.00;;;;;;2272804;61;1097;-85
2022/05/13 16:06:00;109978.00;0.37;190.79;0.00;0.00;0.62;;;;;25.00;1.00;;;;;;2272952;61;959;-86
2022/05/13 16:08:28;1208483.00;4.03;2105.56;113471.00;0.38;196.82;;;;;25.40;1.00;;;;;;2272928;61;1235;-87
2022/05/13 16:10:57;1122635.00;3.74;1950.95;105150.00;0.35;182.46;;;;;25.70;1.00;;;;;;2272812;61;1736;-85
2022/05/13 16:13:29;572287.00;1.91;986.39;102869.00;0.34;178.52;;;;;25.20;1.00;;;;;;2272744;61;1425;-85
2022/05/13 16:16:02;58816.00;0.20;102.43;0.00;0.00;0.62;;;;;24.70;1.00;;;;;;2272829;61;1028;-86
2022/05/13 16:18:34;18924.00;0.06;33.41;0.00;0.00;0.62;;;;;25.10;1.00;;;;;;2272809;61;1927;-86
2022/05/13 16:21:03;166315.00;0.55;287.92;0.00;0.00;0.62;;;;;25.40;1.00;;;;;;2272807;61;937;-85
2022/05/13 16:23:35;666905.00;2.22;1149.89;0.00;0.00;0.62;;;;;25.80;1.00;;;;;;2272857;61;1407;-87
2022/05/13 16:26:03;1077665.00;3.59;1870.53;30443.00;0.10;53.35;;;;;25.50;1.00;;;;;;2272867;61;1163;-86
2022/05/13 16:28:30;377476.00;1.26;651.09;84445.00;0.28;146.71;;;;;25.10;1.00;;;;;;2272723;61;1051;-86
2022/05/13 16:30:57;66616.00;0.22;115.91;0.00;0.00;0.62;;;;;24.80;1.00;;;;;;2272786;61;1529;-86
2022/05/13 16:33:25;79375.00;0.26;137.96;0.00;0.00;0.62;;;;;24.70;1.00;;;;;;2272594;61;1320;-87
2022/05/13 16:35:58;99642.00;0.33;172.95;0.00;0.00;0.62;;;;;25.00;1.00;;;;;;2272677;61;1045;-89
2022/05/13 16:38:25;311629.00;1.04;537.91;0.00;0.00;0.62;;;;;25.30;1.00;;;;;;2272526;61;2004;-88
2022/05/13 16:40:52;999504.00;3.33;1731.59;179114.00;0.60;309.96;;;;;25.60;1.00;;;;;;2272607;61;1089;-86
2022/05/13 16:43:20;75297.00;0.25;130.91;0.00;0.00;0.62;;;;;25.90;1.00;;;;;;2272689;61;1375;-88
2022/05/13 16:45:47;163997.00;0.55;283.93;0.00;0.00;0.62;;;;;25.60;1.00;;;;;;2272638;61;2213;-85
2022/05/13 16:48:14;0.00;0.00;0.62;0.00;0.00;0.62;;;;;25.70;1.00;;;;;;2272706;61;981;-86
2022/05/13 16:50:43;1059231.00;3.53;1837.67;97433.00;0.32;169.14;;;;;25.70;1.00;;;;;;2272785;61;1144;-88
2022/05/13 16:53:12;1050824.00;3.50;1822.70;34121.00;0.11;59.72;;;;;25.60;1.00;;;;;;2272682;61;1433;-88
2022/05/13 16:55:43;218693.00;0.73;378.09;79490.00;0.26;138.16;;;;;25.30;1.00;;;;;;2272803;61;1721;-85
2022/05/13 16:58:10;9992.00;0.03;17.94;0.00;0.00;0.62;;;;;24.90;1.00;;;;;;2272800;61;1078;-87
2022/05/13 17:00:37;169950.00;0.57;294.18;0.00;0.00;0.62;;;;;24.70;1.00;;;;;;2272606;61;1926;-86
2022/05/13 17:03:04;392967.00;1.31;677.72;0.00;0.00;0.62;;;;;24.30;1.00;;;;;;2272579;61;1363;-85
2022/05/13 17:05:34;122536.00;0.41;212.46;0.00;0.00;0.62;;;;;24.30;1.00;;;;;;2272648;61;1440;-88
2022/05/13 17:08:01;749857.00;2.50;1293.81;64365.00;0.21;112.02;;;;;24.30;1.00;;;;;;2272772;61;979;-86
2022/05/13 17:16:23;288910.00;0.96;498.86;75433.00;0.25;131.15;;;;;25.30;1.00;;;;;;2265693;61;1083;-88
2022/05/13 17:21:38;103204.00;0.34;179.10;0.00;0.00;0.62;;;;;25.40;1.00;;;;;;2272762;61;1290;-88
2022/05/13 17:24:12;312631.00;1.04;539.63;8790.00;0.03;15.85;;;;;25.30;1.00;;;;;;2272711;61;1108;-87
2022/05/13 17:26:43;125756.00;0.42;218.01;0.00;0.00;0.62;;;;;25.30;1.00;;;;;;2272471;61;1741;-87
2022/05/13 17:29:13;306125.00;1.02;528.45;0.00;0.00;0.62;;;;;25.40;1.00;;;;;;2272420;55;3772;-87
2022/05/13 17:31:40;726849.00;2.42;1253.83;6313.00;0.02;11.56;;;;;25.50;1.00;;;;;;2268307;61;1274;-87
2022/05/13 17:34:08;470152.00;1.57;810.45;78613.00;0.26;136.64;;;;;25.30;1.00;;;;;;2302693;56;3789;-89
2022/05/13 17:39:04;1296141.00;4.32;2265.04;30102.00;0.10;52.76;;;;;25.40;1.00;;;;;;2277070;55;3644;-88
2022/05/13 17:41:46;297742.00;0.99;514.04;0.00;0.00;0.62;;;;;25.40;1.00;;;;;;2272315;61;1542;-90
2022/05/13 17:44:18;231042.00;0.77;399.34;0.00;0.00;0.62;;;;;25.40;1.00;;;;;;2324472;40;3862;-89
2022/05/13 17:46:46;238847.00;0.80;412.77;0.00;0.00;0.62;;;;;25.40;1.00;;;;;;2279138;39;3634;-88
2022/05/13 17:49:14;342529.00;1.14;591.02;19875.00;0.07;35.05;;;;;25.10;1.00;;;;;;2403371;55;3884;-89
2022/05/13 17:54:17;1237740.00;4.13;2158.60;9761.00;0.03;17.54;;;;;24.80;1.00;;;;;;2296213;40;3515;-89
2022/05/13 17:56:49;1663716.00;5.55;2955.14;198481.00;0.66;343.31;;;;;24.60;1.00;;;;;;2288377;55;3821;-89
2022/05/13 17:59:16;1030662.00;3.44;1786.85;150945.00;0.50;261.44;;;;;24.20;1.00;;;;;;2292609;55;3799;-88
2022/05/13 18:09:22;197745.00;0.66;342.04;0.00;0.00;0.62;;;;;23.90;1.00;;;;;;1442865;40;3265;-89
2022/05/13 18:17:00;229781.00;0.77;397.17;0.00;0.00;0.62;;;;;23.70;1.00;;;;;;2398231;40;2106;-90
2022/05/13 18:29:44;889075.00;2.96;1536.94;59261.00;0.20;103.20;;;;;23.90;1.00;;;;;;2285124;55;3676;-89
2022/05/13 18:32:29;481649.00;1.61;830.24;0.00;0.00;0.62;;;;;23.90;1.00;;;;;;2271737;61;1592;-87
2022/05/13 18:34:56;378680.00;1.26;653.16;0.00;0.00;0.62;;;;;23.80;1.00;;;;;;2309658;40;3921;-87
2022/05/13 18:37:24;1040503.00;3.47;1804.34;32818.00;0.11;57.46;;;;;23.70;1.00;;;;;;2292702;55;3778;-89
2022/05/13 18:47:57;1200385.00;4.00;2090.92;80846.00;0.27;140.50;;;;;23.10;1.00;;;;;;2003961;40;3513;-89
2022/05/13 18:50:24;2426565.00;8.09;4540.16;142381.00;0.47;246.68;;;;;23.00;1.00;;;;;;2271699;61;1583;-89
2022/05/13 18:52:52;658331.00;2.19;1135.05;90324.00;0.30;156.87;;;;;22.90;1.00;;;;;;2358515;55;3777;-88
2022/05/13 18:57:58;735656.00;2.45;1269.13;10312.00;0.03;18.49;;;;;22.90;1.00;;;;;;2273478;61;1674;-90
2022/05/13 19:00:26;294286.00;0.98;508.10;0.00;0.00;0.62;;;;;22.90;1.00;;;;;;2343824;55;3728;-87
2022/05/13 19:02:58;679153.00;2.26;1171.11;96898.00;0.32;168.22;;;;;22.80;1.00;;;;;;2272671;61;2003;-88
2022/05/13 19:10:35;1822634.00;6.08;3266.27;206493.00;0.69;357.10;;;;;22.60;1.00;;;;;;2275732;55;3613;-89
2022/05/13 19:18:07;1066487.00;3.55;1850.59;0.00;0.00;0.62;;;;;22.50;1.00;;;;;;1972301;41;3466;-87
2022/05/13 19:30:58;622332.00;2.07;1072.80;84907.00;0.28;147.51;;;;;22.40;1.00;;;;;;2385365;40;1987;-88
2022/05/13 19:33:29;367499.00;1.22;633.94;0.00;0.00;0.62;;;;;22.30;1.00;;;;;;2279392;56;3842;-89
2022/05/13 19:43:31;2053970.00;6.85;3735.74;160250.00;0.53;277.47;;;;;21.80;1.00;;;;;;2296524;56;3610;-90
2022/05/13 19:48:37;1333130.00;4.44;2332.87;86529.00;0.29;150.31;;;;;21.60;1.00;;;;;;2269934;61;1215;-87
2022/05/13 19:53:39;954320.00;3.18;1651.73;0.00;0.00;0.62;;;;;21.10;1.00;;;;;;1579483;40;3356;-88
2022/05/13 20:01:19;344947.00;1.15;595.18;0.00;0.00;0.62;;;;;21.20;1.00;;;;;;2275458;56;1933;-89
2022/05/13 20:03:49;511489.00;1.70;881.61;44623.00;0.15;77.89;;;;;21.40;1.00;;;;;;2387967;55;3971;-87
2022/05/13 20:11:31;430662.00;1.44;742.52;137811.00;0.46;238.80;;;;;20.80;1.00;;;;;;2415054;40;1829;-86
2022/05/13 20:27:10;354779.00;1.18;612.08;0.00;0.00;0.62;;;;;21.40;1.00;;;;;;2319466;56;1693;-89
2022/05/13 20:39:57;978279.00;3.26;1694.04;76988.00;0.26;133.83;;;;;21.10;1.00;;;;;;1877852;55;3571;-88
2022/05/13 20:42:25;393502.00;1.31;678.63;0.00;0.00;0.62;;;;;20.90;1.00;;;;;;2386071;41;3840;-87
2022/05/13 21:07:45;1026260.00;3.42;1779.04;0.00;0.00;0.62;;;;;19.90;1.00;;;;;;2301781;40;3668;-89
2022/05/13 21:10:15;1366046.00;4.55;2393.50;229583.00;0.77;396.83;;;;;20.00;1.00;;;;;;2358467;40;3658;-88
2022/05/13 21:12:45;1649723.00;5.50;2928.15;184652.00;0.62;319.50;;;;;19.80;1.00;;;;;;2299530;55;3761;-86
2022/05/13 21:15:17;1373324.00;4.58;2406.94;183403.00;0.61;317.35;;;;;19.50;1.00;;;;;;2364920;41;3703;-87
2022/05/13 21:17:46;364181.00;1.21;628.24;71800.00;0.24;124.87;;;;;19.40;1.00;;;;;;2363066;41;3785;-88
2022/05/13 21:22:48;814046.00;2.71;1405.63;0.00;0.00;0.62;;;;;19.40;1.00;;;;;;2281235;40;3464;-86
2022/05/13 21:30:24;233513.00;0.78;403.59;0.00;0.00;0.62;;;;;19.10;1.00;;;;;;1221421;40;3205;-89
2022/05/13 21:40:49;320801.00;1.07;553.67;9817.00;0.03;17.63;;;;;19.50;1.00;;;;;;2317215;56;2143;-88
2022/05/13 21:45:52;388505.00;1.30;670.04;143445.00;0.48;248.51;;;;;19.40;1.00;;;;;;2395175;40;2072;-88
2022/05/13 21:50:57;374633.00;1.25;646.20;63365.00;0.21;110.29;;;;;19.40;1.00;;;;;;1470776;55;3100;-88
2022/05/13 21:56:03;30481.00;0.10;53.42;0.00;0.00;0.62;;;;;19.30;1.00;;;;;;1489664;40;3164;-88
2022/05/13 21:58:32;224482.00;0.75;388.06;0.00;0.00;0.62;;;;;19.10;1.00;;;;;;2291403;55;3741;-86
2022/05/13 22:03:41;311214.00;1.04;537.20;0.00;0.00;0.62;;;;;19.30;1.00;;;;;;1425751;40;3189;-89
2022/05/13 22:06:08;507440.00;1.69;874.63;89602.00;0.30;155.62;;;;;19.20;1.00;;;;;;2272186;61;1524;-89